Time;durP1;ratioP1;P1;durP2;ratioP2;P2;SDS_P1;SDS_P2;PMS_P1;PMS_P2;Temp;Humidity;BMP_temperature;BMP_pressure;BME280_temperature;BME280_humidity;BME280_pressure;Samples;Min_cycle;Max_cycle;Signal;HPM_P1;HPM_P2
2023/08/21 00:00:23;;;;;;;8.77;3.33;;;22.50;82.30;;;25.27;52.74;102164.72;5033338;28;20257;-54
2023/08/21 00:02:50;;;;;;;9.13;3.30;;;22.50;82.50;;;25.26;52.89;102161.19;5033864;28;20191;-57
2023/08/21 00:05:17;;;;;;;4.93;2.67;;;22.50;82.60;;;25.24;52.64;102168.69;5034220;28;20652;-57
2023/08/21 00:07:46;;;;;;;5.77;3.10;;;22.50;82.70;;;25.21;52.58;102173.72;5034404;28;20190;-58
2023/08/21 00:10:14;;;;;;;5.33;2.77;;;22.40;82.60;;;25.17;52.40;102178.78;5033465;28;20730;-56
2023/08/21 00:12:41;;;;;;;8.47;3.43;;;22.40;82.80;;;25.14;52.33;102178.44;5033327;28;20554;-57
2023/08/21 00:15:09;;;;;;;4.37;2.77;;;22.30;82.90;;;25.10;53.03;102174.56;5034064;28;20195;-54
2023/08/21 00:17:36;;;;;;;5.10;2.97;;;22.30;83.00;;;25.06;53.05;102176.06;5033283;28;20244;-55
2023/08/21 00:20:05;;;;;;;7.67;3.20;;;22.30;83.10;;;25.04;53.21;102178.19;5033237;28;20210;-56
2023/08/21 00:22:32;;;;;;;5.30;3.23;;;22.20;83.20;;;25.01;53.12;102184.06;5033458;28;20195;-54
2023/08/21 00:25:01;;;;;;;7.57;3.10;;;22.20;83.60;;;25.01;53.21;102184.88;5033732;28;20206;-57
2023/08/21 00:27:28;;;;;;;7.10;3.00;;;22.20;84.10;;;25.02;54.00;102174.91;5034045;28;20191;-57
2023/08/21 00:29:55;;;;;;;6.67;2.73;;;22.20;84.30;;;25.02;53.61;102175.75;5033503;28;20699;-57
2023/08/21 00:32:22;;;;;;;6.50;2.73;;;22.20;84.10;;;25.03;53.21;102182.75;5033654;28;20680;-54
2023/08/21 00:34:49;;;;;;;3.17;2.27;;;22.20;84.10;;;25.01;53.23;102176.78;5016782;28;20284;-57
2023/08/21 00:37:16;;;;;;;7.03;3.00;;;22.20;84.10;;;25.02;53.72;102174.91;5020903;28;20663;-56
2023/08/21 00:39:43;;;;;;;7.53;3.20;;;22.20;84.10;;;25.00;53.04;102168.94;5033184;28;20211;-54
2023/08/21 00:42:11;;;;;;;6.77;2.90;;;22.20;84.10;;;25.00;53.92;102172.47;5033562;28;20202;-55
2023/08/21 00:44:38;;;;;;;7.33;3.27;;;22.20;84.50;;;25.00;53.77;102167.06;5033318;28;20714;-54
2023/08/21 00:47:06;;;;;;;5.77;2.80;;;22.20;84.30;;;25.01;53.74;102174.09;5033649;28;20222;-57
2023/08/21 00:49:33;;;;;;;4.33;2.47;;;22.20;84.10;;;24.99;52.99;102168.13;5033296;28;20218;-60
2023/08/21 00:52:02;;;;;;;5.20;3.33;;;22.20;84.10;;;24.99;53.77;102173.50;5034328;28;20199;-58
2023/08/21 00:54:30;;;;;;;6.53;3.07;;;22.20;84.30;;;25.00;53.62;102169.78;5033575;28;20194;-55
2023/08/21 00:56:57;;;;;;;6.03;3.20;;;22.20;84.20;;;24.99;53.65;102173.50;5033687;28;20202;-58
2023/08/21 00:59:25;;;;;;;7.83;3.10;;;22.20;84.10;;;24.99;53.87;102176.19;5033039;28;20269;-56
2023/08/21 01:01:52;;;;;;;3.73;2.87;;;22.20;84.30;;;25.01;53.35;102174.09;5033541;28;20197;-58
2023/08/21 01:04:20;;;;;;;6.53;3.30;;;22.20;84.40;;;24.99;53.61;102170.81;5033031;28;20555;-56
2023/08/21 01:06:49;;;;;;;5.60;3.17;;;22.20;84.00;;;24.97;53.75;102175.63;5032802;28;20199;-57
2023/08/21 01:09:27;;;;;;;5.43;3.33;;;22.20;84.30;;;24.96;53.71;102173.16;5032835;28;20214;-58
2023/08/21 01:12:05;;;;;;;5.27;3.53;;;22.20;84.40;;;24.93;53.68;102171.75;5033411;28;20175;-57
2023/08/21 01:14:43;;;;;;;4.83;2.93;;;22.20;84.00;;;24.89;53.22;102178.66;5033158;28;20193;-56
2023/08/21 01:17:14;;;;;;;5.50;2.73;;;22.20;84.10;;;24.91;53.35;102173.88;5033337;28;20226;-57
2023/08/21 01:19:45;;;;;;;8.07;3.27;;;22.10;84.20;;;24.88;53.73;102171.63;5032492;28;20571;-58
2023/08/21 01:22:13;;;;;;;6.50;3.27;;;22.20;84.30;;;24.82;53.82;102170.69;5033089;28;20274;-57
2023/08/21 01:24:41;;;;;;;5.47;3.07;;;22.10;84.10;;;24.80;53.68;102178.19;5036368;28;20187;-57
2023/08/21 01:27:10;;;;;;;4.83;2.73;;;22.10;84.50;;;24.81;54.41;102169.06;5037104;28;20198;-55
2023/08/21 01:29:37;;;;;;;7.53;2.97;;;22.10;84.70;;;24.79;53.70;102164.97;5036564;28;20301;-58
2023/08/21 01:32:13;;;;;;;7.70;3.50;;;22.10;84.70;;;24.76;53.75;102160.00;5036810;28;20191;-57
2023/08/21 01:34:41;;;;;;;4.60;3.00;;;22.10;84.80;;;24.75;53.95;102172.66;5036587;28;20190;-58
2023/08/21 01:37:11;;;;;;;6.50;3.30;;;22.10;85.00;;;24.72;54.61;102169.63;5036162;28;20201;-56
2023/08/21 01:39:38;;;;;;;7.87;3.73;;;22.00;85.10;;;24.71;54.77;102170.66;5036627;28;20215;-59
2023/08/21 01:42:06;;;;;;;6.13;2.87;;;22.00;85.60;;;24.70;54.15;102177.06;5035462;28;20652;-57
2023/08/21 01:44:33;;;;;;;5.07;3.10;;;22.00;85.30;;;24.70;54.09;102186.00;5036500;28;20209;-57
2023/08/21 01:47:00;;;;;;;7.87;4.30;;;22.00;85.20;;;24.66;54.87;102189.38;5036540;28;20265;-57
2023/08/21 01:49:29;;;;;;;10.27;4.13;;;22.00;85.30;;;24.62;54.51;102185.53;5035766;28;20245;-57
2023/08/21 01:51:56;;;;;;;5.00;3.37;;;22.00;85.20;;;24.59;54.67;102175.19;5036673;28;20203;-56
2023/08/21 01:54:23;;;;;;;4.77;3.40;;;21.90;85.20;;;24.58;54.91;102178.97;5018543;28;20285;-57
2023/08/21 01:56:50;;;;;;;6.20;3.30;;;21.90;85.50;;;24.59;55.07;102180.59;5016661;28;20567;-57
2023/08/21 01:59:21;;;;;;;6.43;4.20;;;21.90;86.00;;;24.60;54.75;102187.63;5016386;28;20193;-57
2023/08/21 02:01:48;;;;;;;8.60;3.83;;;21.90;85.80;;;24.60;55.26;102183.06;5016903;28;20188;-56
2023/08/21 02:04:15;;;;;;;6.60;4.20;;;21.90;86.20;;;24.63;55.05;102184.44;5030307;28;20198;-57
2023/08/21 02:06:43;;;;;;;8.93;4.30;;;21.90;85.90;;;24.65;55.04;102182.38;5036299;28;20282;-58
2023/08/21 02:09:11;;;;;;;8.67;5.10;;;21.90;86.00;;;24.67;55.21;102183.78;5035797;28;20651;-57
2023/08/21 02:11:38;;;;;;;7.30;3.90;;;21.90;86.20;;;24.69;54.43;102186.22;5036115;28;20197;-57
2023/08/21 02:14:05;;;;;;;5.90;3.63;;;21.90;86.30;;;24.74;54.62;102181.81;5036362;28;20706;-57
2023/08/21 02:16:33;;;;;;;8.17;4.43;;;21.90;86.50;;;24.80;54.56;102171.97;5035981;28;20206;-55
2023/08/21 02:19:00;;;;;;;7.30;4.07;;;22.00;86.50;;;24.83;54.40;102182.28;5035842;28;20194;-57
2023/08/21 02:21:27;;;;;;;5.77;3.80;;;22.00;86.10;;;24.86;54.91;102176.44;5035435;28;20268;-55
2023/08/21 02:23:54;;;;;;;8.00;3.80;;;22.10;86.10;;;24.89;54.26;102178.66;5035681;28;20217;-54
2023/08/21 02:26:21;;;;;;;7.60;3.70;;;22.10;86.10;;;24.91;54.27;102181.97;5035702;28;20628;-56
2023/08/21 02:28:48;;;;;;;6.37;3.70;;;22.10;85.90;;;24.94;54.06;102181.47;5035476;28;20546;-59
2023/08/21 02:31:15;;;;;;;9.27;3.97;;;22.10;85.80;;;24.96;54.01;102179.34;5035495;28;20305;-59
2023/08/21 02:33:44;;;;;;;9.33;4.47;;;22.10;85.60;;;24.97;53.78;102183.69;5035487;28;20512;-56
2023/08/21 02:36:11;;;;;;;7.63;3.60;;;22.20;85.70;;;24.98;54.40;102189.91;5035119;28;20194;-56
2023/08/21 02:38:38;;;;;;;10.53;4.43;;;22.20;85.70;;;25.00;53.68;102196.72;5017326;28;20187;-58
2023/08/21 02:41:05;;;;;;;7.50;3.70;;;22.20;85.50;;;24.98;54.41;102188.06;5015679;28;20219;-56
2023/08/21 02:43:32;;;;;;;10.83;5.50;;;22.10;85.50;;;24.98;54.26;102193.44;5015958;28;20630;-58
2023/08/21 02:45:59;;;;;;;6.83;4.37;;;22.10;85.30;;;24.96;53.77;102198.22;5033243;28;20585;-56
2023/08/21 02:48:26;;;;;;;5.83;3.27;;;22.10;85.30;;;24.94;53.72;102189.56;5035462;28;20189;-57
2023/08/21 02:50:54;;;;;;;13.33;4.93;;;22.20;85.50;;;24.94;53.68;102194.94;5026461;28;20279;-64
2023/08/21 02:53:21;;;;;;;9.37;4.50;;;22.10;85.30;;;24.94;54.25;102199.53;5035146;28;20203;-57
2023/08/21 02:55:48;;;;;;;6.30;4.77;;;22.10;85.20;;;24.93;54.44;102197.88;5034420;28;20190;-58
2023/08/21 02:58:16;;;;;;;9.80;6.00;;;22.10;85.50;;;24.92;54.58;102197.06;5035303;28;20276;-56
2023/08/21 03:00:43;;;;;;;9.90;4.37;;;22.10;85.50;;;24.92;53.96;102194.34;5034723;28;20375;-57
2023/08/21 03:03:11;;;;;;;7.63;5.10;;;22.10;85.50;;;24.91;54.18;102203.53;5034965;28;20201;-56
2023/08/21 03:05:38;;;;;;;6.63;4.20;;;22.10;85.20;;;24.85;54.22;102204.44;5034726;28;20201;-56
2023/08/21 03:08:06;;;;;;;10.13;5.40;;;22.10;85.40;;;24.82;54.12;102196.81;5035383;28;20230;-57
2023/08/21 03:10:34;;;;;;;6.87;5.37;;;22.00;85.30;;;24.76;54.12;102208.50;5034502;28;20305;-58
2023/08/21 03:13:01;;;;;;;7.50;5.03;;;22.00;85.30;;;24.70;54.41;102214.78;5034713;28;20229;-55
2023/08/21 03:15:28;;;;;;;12.43;6.17;;;21.90;85.20;;;24.62;54.36;102212.44;5034669;28;20269;-55
2023/08/21 03:17:56;;;;;;;9.97;5.50;;;21.90;85.50;;;24.53;54.11;102209.25;5034589;28;20187;-59
2023/08/21 03:20:23;;;;;;;10.30;5.43;;;21.80;85.60;;;24.46;54.73;102205.03;5034471;28;20306;-58
2023/08/21 03:22:50;;;;;;;7.57;4.80;;;21.70;85.60;;;24.40;54.56;102198.69;5034780;28;20300;-56
2023/08/21 03:25:18;;;;;;;6.87;5.20;;;21.60;86.40;;;24.37;54.88;102203.72;5034904;28;20655;-58
2023/08/21 03:27:49;;;;;;;9.23;5.80;;;21.60;86.20;;;24.33;54.68;102210.59;5034625;28;20738;-57
2023/08/21 03:30:16;;;;;;;6.87;4.87;;;21.50;86.40;;;24.30;55.28;102219.13;5034526;28;20397;-62
2023/08/21 03:32:43;;;;;;;10.77;5.87;;;21.50;86.70;;;24.28;55.50;102213.16;5034187;28;20195;-59
2023/08/21 03:35:10;;;;;;;7.70;4.67;;;21.50;86.70;;;24.27;55.08;102208.84;5034738;28;20244;-56
2023/08/21 03:37:37;;;;;;;9.90;6.03;;;21.50;87.10;;;24.26;55.25;102207.19;5035057;28;20644;-58
2023/08/21 03:40:06;;;;;;;6.63;4.40;;;21.50;86.50;;;24.23;55.59;102201.22;5034755;28;20687;-54
2023/08/21 03:42:34;;;;;;;7.20;4.50;;;21.50;86.80;;;24.24;55.22;102204.75;5033953;28;20206;-56
2023/08/21 03:45:04;;;;;;;6.70;4.67;;;21.50;87.10;;;24.25;55.42;102200.19;5034302;28;21157;-57
2023/08/21 03:47:31;;;;;;;9.83;5.77;;;21.50;87.10;;;24.27;55.39;102206.16;5033217;28;20202;-55
2023/08/21 03:49:58;;;;;;;7.73;4.33;;;21.50;86.80;;;24.28;55.16;102205.09;5034024;28;20218;-54
2023/08/21 03:52:25;;;;;;;8.57;5.17;;;21.50;86.90;;;24.30;55.50;102197.59;5033631;28;20531;-55
2023/08/21 03:54:52;;;;;;;6.27;4.33;;;21.50;86.60;;;24.33;55.41;102202.53;5034426;28;20203;-57
2023/08/21 03:57:19;;;;;;;9.30;4.33;;;21.50;86.70;;;24.37;54.93;102209.09;5033937;28;20214;-55
2023/08/21 03:59:48;;;;;;;6.10;4.30;;;21.60;86.70;;;24.39;55.28;102217.78;5033404;28;20206;-55
2023/08/21 04:02:15;;;;;;;6.90;4.63;;;21.60;86.50;;;24.41;54.58;102211.13;5033278;28;20269;-57
2023/08/21 04:04:42;;;;;;;10.27;4.60;;;21.60;86.10;;;24.41;55.15;102208.44;5033196;28;20336;-54
2023/08/21 04:07:09;;;;;;;10.70;4.50;;;21.70;86.10;;;24.43;55.06;102209.00;5033762;28;20183;-57
2023/08/21 04:09:36;;;;;;;6.67;4.43;;;21.70;86.10;;;24.44;54.06;102210.63;5033406;28;20222;-58
2023/08/21 04:12:03;;;;;;;6.90;3.60;;;21.70;85.60;;;24.43;54.47;102209.00;5033387;28;20655;-57
2023/08/21 04:14:30;;;;;;;5.37;3.33;;;21.70;85.20;;;24.40;54.20;102205.94;5033698;28;20225;-56
2023/08/21 04:16:59;;;;;;;9.33;4.27;;;21.70;85.70;;;24.39;54.84;102207.03;5034014;28;20224;-56
2023/08/21 04:19:29;;;;;;;6.77;4.57;;;21.70;85.90;;;24.39;54.24;102207.81;5033086;28;20405;-56
2023/08/21 04:21:56;;;;;;;8.60;4.73;;;21.60;85.60;;;24.38;54.26;102208.06;5033132;28;20272;-58
2023/08/21 04:24:24;;;;;;;8.00;4.80;;;21.70;85.40;;;24.36;54.36;102208.28;5033529;28;20244;-55
2023/08/21 04:26:51;;;;;;;6.50;4.17;;;21.60;84.60;;;24.30;54.30;102209.19;5033367;28;20201;-56
2023/08/21 04:29:18;;;;;;;9.20;4.87;;;21.60;84.70;;;24.23;54.06;102206.59;5032958;28;20288;-57
2023/08/21 04:31:45;;;;;;;6.93;4.73;;;21.50;84.60;;;24.15;54.02;102215.00;5033018;28;20252;-57
2023/08/21 04:34:13;;;;;;;6.30;4.67;;;21.40;85.20;;;24.13;54.58;102213.56;5033366;28;20289;-57
2023/08/21 04:36:40;;;;;;;5.93;4.50;;;21.40;85.80;;;24.09;54.85;102218.59;5033249;28;20187;-59
2023/08/21 04:39:07;;;;;;;6.90;4.20;;;21.40;85.60;;;24.05;54.32;102217.41;5033206;28;20191;-56
2023/08/21 04:41:35;;;;;;;9.37;4.73;;;21.30;85.70;;;24.03;54.25;102215.97;5027991;28;20278;-57
2023/08/21 04:44:03;;;;;;;7.37;4.60;;;21.20;86.10;;;24.01;54.92;102213.50;5032457;28;20214;-57
2023/08/21 04:46:30;;;;;;;7.23;4.00;;;21.20;86.10;;;23.98;54.55;102211.28;5033029;28;20261;-59
2023/08/21 04:48:57;;;;;;;8.67;4.03;;;21.20;86.20;;;23.97;54.75;102215.00;5032945;28;20659;-58
2023/08/21 04:51:25;;;;;;;9.53;4.43;;;21.20;86.10;;;23.94;54.76;102210.06;5033050;28;20297;-55
2023/08/21 04:53:52;;;;;;;7.53;4.30;;;21.20;86.10;;;23.90;54.87;102218.81;5032873;28;20193;-55
2023/08/21 04:56:19;;;;;;;7.90;4.17;;;21.10;85.80;;;23.85;54.70;102211.44;5033230;28;20191;-59
2023/08/21 04:58:46;;;;;;;10.33;5.43;;;21.10;85.90;;;23.81;55.15;102215.63;5036595;28;20190;-57
2023/08/21 05:01:13;;;;;;;12.13;4.90;;;21.10;86.20;;;23.78;55.02;102210.69;5037186;28;20307;-58
2023/08/21 05:03:41;;;;;;;8.10;4.70;;;21.00;86.30;;;23.75;55.04;102210.34;5036797;28;20199;-59
2023/08/21 05:06:08;;;;;;;9.37;4.60;;;21.00;86.50;;;23.71;55.15;102212.63;5036545;28;20234;-58
2023/08/21 05:08:36;;;;;;;10.07;4.37;;;21.00;86.80;;;23.71;55.46;102209.94;5036238;28;20200;-57
2023/08/21 05:11:03;;;;;;;5.80;4.47;;;20.90;86.90;;;23.68;55.12;102213.09;5036492;28;20218;-57
2023/08/21 05:13:30;;;;;;;7.90;4.97;;;20.90;87.10;;;23.68;55.36;102215.78;5036501;28;20198;-57
2023/08/21 05:15:58;;;;;;;5.87;4.33;;;20.90;87.20;;;23.68;55.57;102213.09;5036550;28;20195;-58
2023/08/21 05:18:26;;;;;;;7.23;5.10;;;20.90;87.50;;;23.70;55.72;102224.44;5036642;28;20193;-62
2023/08/21 05:20:55;;;;;;;6.77;4.43;;;20.80;87.70;;;23.74;55.67;102219.44;5037253;28;20574;-56
2023/08/21 05:23:23;;;;;;;8.57;5.00;;;20.90;87.90;;;23.76;55.66;102223.53;5036780;28;20203;-54
2023/08/21 05:25:51;;;;;;;11.33;6.87;;;20.90;87.90;;;23.78;55.96;102228.69;5037099;28;20525;-58
2023/08/21 05:28:18;;;;;;;12.87;6.50;;;20.90;88.70;;;23.82;55.83;102228.00;5036648;28;20557;-57
2023/08/21 05:30:48;;;;;;;6.27;4.70;;;21.00;88.20;;;23.87;55.88;102225.47;5035925;28;20222;-58
2023/08/21 05:33:15;;;;;;;8.50;5.37;;;21.00;88.30;;;23.93;56.43;102226.44;5035683;28;20298;-57
2023/08/21 05:35:42;;;;;;;7.80;5.20;;;21.00;88.40;;;24.02;55.72;102228.59;5036154;28;20276;-58
2023/08/21 05:38:09;;;;;;;8.13;4.97;;;21.10;88.60;;;24.10;55.81;102231.00;5035497;28;20289;-58
2023/08/21 05:40:36;;;;;;;11.30;5.47;;;21.20;88.20;;;24.15;56.01;102228.44;5036012;28;20241;-57
2023/08/21 05:43:04;;;;;;;7.90;4.37;;;21.30;88.00;;;24.25;55.91;102227.09;5036034;28;20212;-57
2023/08/21 05:45:32;;;;;;;8.73;5.67;;;21.40;88.00;;;24.31;55.33;102228.88;5035708;28;20209;-56
2023/08/21 05:47:59;;;;;;;9.53;5.27;;;21.40;87.70;;;24.39;54.94;102233.94;5035830;28;20582;-58
2023/08/21 05:50:26;;;;;;;10.87;5.40;;;21.50;87.60;;;24.47;55.29;102236.28;5035217;28;20309;-59
2023/08/21 05:52:54;;;;;;;9.27;5.10;;;21.60;87.60;;;24.57;55.39;102236.56;5035823;28;20190;-59
2023/08/21 05:55:21;;;;;;;9.87;5.97;;;21.70;87.30;;;24.66;54.56;102235.16;5035540;28;20191;-58
2023/08/21 05:57:48;;;;;;;8.77;5.77;;;21.80;87.10;;;24.72;54.41;102237.75;5035386;28;20198;-59
2023/08/21 06:00:17;;;;;;;15.13;6.33;;;21.90;86.80;;;24.80;54.44;102231.25;5035003;28;20238;-57
2023/08/21 06:02:44;;;;;;;10.83;6.87;;;21.90;86.50;;;24.87;54.51;102240.03;5035644;28;20193;-59
2023/08/21 06:05:11;;;;;;;12.97;6.00;;;22.00;86.30;;;24.96;53.67;102245.94;5035178;28;20542;-59
2023/08/21 06:07:40;;;;;;;7.77;5.27;;;22.10;86.10;;;25.04;53.48;102249.09;5035045;28;20271;-57
2023/08/21 06:10:08;;;;;;;11.63;5.30;;;22.10;85.80;;;25.11;53.49;102244.41;5034266;28;20305;-57
2023/08/21 06:12:35;;;;;;;9.03;4.67;;;22.20;85.60;;;25.18;53.16;102247.81;5035421;28;20191;-59
2023/08/21 06:15:03;;;;;;;11.10;6.77;;;22.20;85.10;;;25.26;53.56;102239.38;5035008;28;20199;-56
2023/08/21 06:17:32;;;;;;;9.90;6.53;;;22.30;85.10;;;25.33;53.37;102241.94;5034370;28;20552;-54
2023/08/21 06:19:59;;;;;;;10.97;5.87;;;22.40;85.00;;;25.41;52.74;102245.09;5034388;28;20218;-59
2023/08/21 06:22:26;;;;;;;10.23;6.27;;;22.50;84.90;;;25.47;53.11;102244.19;5034869;28;20183;-61
2023/08/21 06:24:53;;;;;;;9.37;8.03;;;22.60;84.60;;;25.51;53.04;102248.06;5035316;28;20187;-58
2023/08/21 06:27:20;;;;;;;11.27;7.60;;;22.60;84.30;;;25.54;52.44;102239.50;5035460;28;20214;-55
2023/08/21 06:29:47;;;;;;;10.87;5.83;;;22.70;84.00;;;25.55;52.06;102243.81;5034557;28;20215;-58
2023/08/21 06:32:14;;;;;;;8.03;4.10;;;22.70;83.80;;;25.59;52.64;102251.44;5034738;28;20206;-56
2023/08/21 06:34:43;;;;;;;9.77;5.70;;;22.70;83.80;;;25.66;52.03;102257.53;5034650;28;20281;-56
2023/08/21 06:37:10;;;;;;;6.83;4.50;;;22.80;83.90;;;25.68;52.53;102250.84;5042404;28;20198;-60
2023/08/21 06:39:37;;;;;;;8.03;5.17;;;22.80;83.80;;;25.74;51.96;102254.47;5037300;28;20570;-57
2023/08/21 06:42:04;;;;;;;12.90;6.37;;;22.90;83.90;;;25.78;51.69;102255.63;5035019;28;20566;-55
2023/08/21 06:44:31;;;;;;;19.27;13.87;;;22.90;83.60;;;25.80;52.29;102258.91;5035025;28;20195;-57
2023/08/21 06:46:58;;;;;;;12.03;7.20;;;22.90;83.50;;;25.83;51.61;102259.28;5034770;28;20194;-59
2023/08/21 06:49:25;;;;;;;11.17;6.33;;;22.90;83.40;;;25.87;52.02;102256.91;5033938;28;20245;-56
2023/08/21 06:51:54;;;;;;;9.33;5.93;;;23.00;83.60;;;25.89;51.79;102257.47;5034717;28;20218;-56
2023/08/21 06:54:21;;;;;;;10.80;7.23;;;23.00;83.50;;;25.93;51.77;102254.09;5034079;28;20615;-55
2023/08/21 06:56:48;;;;;;;14.13;8.73;;;23.00;83.40;;;25.94;51.75;102263.00;5034587;28;20202;-57
2023/08/21 06:59:15;;;;;;;6.83;5.97;;;23.10;83.40;;;25.99;52.06;102252.28;5033725;28;20202;-59
2023/08/21 07:01:42;;;;;;;6.83;4.60;;;23.10;83.60;;;26.08;51.81;102262.47;5035007;28;20187;-60
2023/08/21 07:04:15;;;;;;;8.67;4.27;;;23.10;83.30;;;26.18;50.92;102257.31;5035230;28;20190;-60
2023/08/21 07:06:43;;;;;;;12.43;4.07;;;23.10;82.00;;;26.23;50.41;102259.28;5034596;28;20648;-58
2023/08/21 07:09:11;;;;;;;8.73;3.47;;;23.20;81.10;;;26.28;49.58;102261.25;5033256;28;20238;-58
2023/08/21 07:11:38;;;;;;;8.90;4.00;;;23.20;80.70;;;26.31;50.11;102260.78;5033022;28;20232;-58
2023/08/21 07:14:05;;;;;;;8.43;3.60;;;23.30;80.70;;;26.34;49.50;102271.91;5034086;28;20229;-54
2023/08/21 07:16:32;;;;;;;9.37;4.40;;;23.30;80.40;;;26.39;49.63;102263.91;5033827;28;20198;-54
2023/08/21 07:18:59;;;;;;;11.70;4.63;;;23.30;80.30;;;26.43;49.19;102267.78;5033187;28;20274;-59
2023/08/21 07:21:30;;;;;;;7.63;4.00;;;23.40;80.10;;;26.47;49.24;102271.63;5028090;28;20230;-58
2023/08/21 07:24:00;;;;;;;5.57;3.20;;;23.40;79.70;;;26.54;48.63;102274.19;5041927;28;20652;-58
2023/08/21 07:26:29;;;;;;;5.60;2.87;;;23.40;79.70;;;26.60;48.90;102282.13;5033307;28;20198;-57
2023/08/21 07:28:56;;;;;;;5.40;3.40;;;23.50;79.80;;;26.71;48.26;102273.16;5032077;28;20202;-61
2023/08/21 07:31:23;;;;;;;6.63;3.00;;;23.50;78.80;;;26.77;48.17;102279.47;5031846;28;20229;-57
2023/08/21 07:33:50;;;;;;;6.27;2.87;;;23.60;78.70;;;27.05;48.17;102278.63;5034256;28;20214;-58
2023/08/21 07:36:18;;;;;;;6.40;2.87;;;23.70;79.20;;;27.67;47.78;102274.69;5031757;28;20194;-58
2023/08/21 07:38:46;;;;;;;6.97;4.63;;;24.00;79.90;;;28.48;45.89;102272.97;5032932;28;20256;-58
2023/08/21 07:41:13;;;;;;;11.23;3.17;;;24.30;79.10;;;29.30;44.39;102266.13;5032256;28;20277;-57
2023/08/21 07:43:43;;;;;;;6.83;2.87;;;24.70;77.60;;;30.17;43.11;102276.31;5033266;28;20206;-59
2023/08/21 07:46:15;;;;;;;8.03;3.73;;;25.30;76.30;;;31.16;40.64;102279.47;5030952;28;20732;-57
2023/08/21 07:48:44;;;;;;;7.00;3.10;;;25.90;74.00;;;32.15;38.57;102281.34;5030969;28;20209;-58
2023/08/21 07:51:11;;;;;;;6.93;3.33;;;26.50;71.40;;;33.00;36.57;102281.81;5032195;28;20218;-58
2023/08/21 07:53:38;;;;;;;6.10;2.77;;;27.10;68.80;;;33.80;34.44;102285.69;5024816;28;20198;-58
2023/08/21 07:56:05;;;;;;;4.73;2.63;;;27.70;64.70;;;34.44;33.55;102285.91;5033215;28;20617;-57
2023/08/21 07:58:33;;;;;;;4.43;2.00;;;28.30;63.20;;;35.20;32.39;102287.41;5033013;28;20199;-56
2023/08/21 08:01:01;;;;;;;3.33;2.20;;;28.90;60.10;;;35.82;31.12;102289.50;5032239;28;20210;-58
2023/08/21 08:03:30;;;;;;;4.43;2.03;;;29.40;58.10;;;36.36;29.84;102288.59;5032132;28;20194;-55
2023/08/21 08:05:57;;;;;;;5.63;2.67;;;29.90;55.90;;;36.84;28.32;102294.31;5033527;28;20191;-58
2023/08/21 08:08:25;;;;;;;6.78;2.90;;;30.40;54.40;;;37.23;27.30;102286.13;5031944;28;20198;-60
2023/08/21 08:10:52;;;;;;;6.18;2.40;;;30.90;51.90;;;37.75;27.36;102280.84;5032542;28;20280;-58
2023/08/21 08:13:20;;;;;;;6.50;3.13;;;31.30;52.30;;;38.40;25.94;102278.03;5030357;28;20218;-59
2023/08/21 08:15:48;;;;;;;7.45;2.40;;;31.80;49.00;;;38.91;24.82;102278.00;5033636;28;20229;-59
2023/08/21 08:18:17;;;;;;;4.93;2.13;;;32.20;46.50;;;39.40;23.32;102276.53;5043064;28;20190;-57
2023/08/21 08:20:48;;;;;;;2.75;2.03;;;32.50;43.70;;;39.90;22.16;102273.81;5011322;28;20211;-59
2023/08/21 08:23:15;;;;;;;5.22;2.83;;;32.80;42.90;;;40.35;22.61;102271.22;5031053;28;20187;-56
2023/08/21 08:25:44;;;;;;;6.45;3.15;;;33.10;42.30;;;40.76;21.99;102271.16;5031426;28;20206;-62
2023/08/21 08:28:11;;;;;;;7.80;2.83;;;33.40;41.70;;;41.00;21.59;102268.47;5028339;28;20222;-60
2023/08/21 08:30:39;;;;;;;3.05;2.00;;;33.70;40.00;;;41.19;20.52;102274.25;5027695;28;20314;-55
2023/08/21 08:33:09;;;;;;;4.97;2.72;;;33.90;39.00;;;41.44;20.84;102266.00;5027241;28;20198;-58
2023/08/21 08:35:37;;;;;;;5.93;2.58;;;34.20;38.90;;;41.60;20.21;102269.66;5026258;28;20203;-57
2023/08/21 08:38:04;;;;;;;4.10;2.58;;;34.40;37.80;;;41.85;19.75;102271.25;5030452;28;20194;-59
2023/08/21 08:40:35;;;;;;;5.72;3.25;;;34.60;37.40;;;42.13;19.34;102266.59;5032266;28;20215;-56
2023/08/21 08:43:05;;;;;;;9.30;3.65;;;34.80;36.20;;;42.22;19.94;102267.22;5033184;28;20206;-58
2023/08/21 08:45:34;;;;;;;4.18;2.78;;;35.00;36.40;;;42.40;19.71;102278.84;5031464;28;20536;-58
2023/08/21 08:48:02;;;;;;;7.60;3.35;;;35.20;35.80;;;42.73;19.45;102270.25;5031092;28;20553;-59
2023/08/21 08:50:32;;;;;;;5.93;3.85;;;35.40;36.10;;;43.01;19.24;102271.00;5030943;28;20234;-60
2023/08/21 08:53:01;;;;;;;7.65;3.60;;;35.60;36.00;;;43.12;18.70;102272.09;5029553;28;20198;-55
2023/08/21 08:55:43;;;;;;;10.45;2.80;;;35.80;35.30;;;42.66;19.05;102270.06;5013207;28;20283;-58
2023/08/21 08:58:10;;;;;;;5.82;2.63;;;35.90;34.00;;;42.14;19.26;102268.22;5015462;28;20195;-56
2023/08/21 09:00:37;;;;;;;5.57;3.05;;;35.90;33.80;;;41.93;19.83;102263.97;5032117;28;20226;-58
2023/08/21 09:03:05;;;;;;;5.70;3.10;;;35.80;34.50;;;41.74;19.94;102257.09;5029618;28;20250;-59
2023/08/21 09:05:34;;;;;;;8.40;3.50;;;35.60;34.80;;;41.97;19.61;102262.91;5027634;28;20203;-54
2023/08/21 09:08:11;;;;;;;5.20;3.58;;;35.60;35.00;;;42.36;19.60;102253.81;5030331;28;20624;-59
2023/08/21 09:10:40;;;;;;;7.00;2.72;;;35.60;34.90;;;42.45;19.04;102257.22;5027219;28;20772;-58
2023/08/21 09:13:13;;;;;;;7.28;3.20;;;35.50;34.00;;;42.80;18.89;102248.25;5032708;28;20206;-58
2023/08/21 09:15:42;;;;;;;5.82;2.92;;;35.60;34.40;;;43.32;18.07;102259.94;5031631;28;20203;-58
2023/08/21 09:18:14;;;;;;;7.88;3.15;;;35.70;34.50;;;43.98;17.73;102251.50;5030583;28;20229;-55
2023/08/21 09:20:47;;;;;;;5.53;3.03;;;35.90;34.50;;;44.46;17.67;102255.72;5031643;28;20223;-61
2023/08/21 09:23:18;;;;;;;6.28;2.92;;;36.20;34.20;;;44.68;17.85;102251.34;5032145;28;20203;-59
2023/08/21 09:25:50;;;;;;;8.52;3.30;;;36.40;34.10;;;44.93;17.49;102249.84;5030472;28;20198;-57
2023/08/21 09:28:22;;;;;;;9.52;3.53;;;36.70;33.70;;;45.17;17.05;102243.06;5029457;28;20202;-59
2023/08/21 09:30:54;;;;;;;5.40;3.22;;;36.90;32.90;;;45.36;16.52;102248.56;5020624;28;20207;-58
2023/08/21 09:33:24;;;;;;;7.60;3.00;;;37.10;32.40;;;45.47;17.07;102243.94;5028467;28;20195;-59
2023/08/21 09:35:53;;;;;;;9.00;2.80;;;37.30;32.30;;;45.51;16.16;102242.81;5028016;28;20195;-61
2023/08/21 09:38:22;;;;;;;4.43;2.70;;;37.50;31.60;;;45.61;16.59;102238.59;5039008;28;20290;-57
2023/08/21 09:40:54;;;;;;;5.13;2.55;;;37.70;31.30;;;45.36;16.73;102246.56;5030792;28;20222;-57
2023/08/21 09:43:24;;;;;;;4.95;2.40;;;37.80;31.60;;;45.46;16.58;102242.31;5029569;28;20541;-59
2023/08/21 09:45:57;;;;;;;7.40;2.90;;;37.90;32.00;;;45.85;16.40;102231.75;5032475;28;20199;-59
2023/08/21 09:48:27;;;;;;;7.70;4.07;;;38.00;31.40;;;46.09;16.14;102231.28;5033391;28;20716;-60
2023/08/21 09:50:55;;;;;;;7.25;2.78;;;38.00;31.40;;;46.32;15.97;102235.50;5035138;28;20218;-61
2023/08/21 09:53:24;;;;;;;3.13;1.95;;;38.10;31.00;;;46.38;16.15;102240.78;5035414;28;20183;-58
2023/08/21 09:56:11;;;;;;;41.17;9.10;;;38.20;30.30;;;46.54;16.01;102235.75;5029941;28;20317;-57
2023/08/21 09:58:43;;;;;;;40.90;7.45;;;38.40;30.50;;;46.85;15.73;102235.25;5031760;28;20277;-59
2023/08/21 10:01:11;;;;;;;4.35;2.33;;;38.50;30.50;;;47.06;15.29;102232.66;5033531;28;20702;-58
2023/08/21 10:03:40;;;;;;;7.18;3.63;;;38.70;30.00;;;47.01;15.14;102233.00;5035517;28;20191;-59
2023/08/21 10:06:10;;;;;;;3.30;1.90;;;38.80;29.20;;;46.56;14.87;102239.75;5034561;28;20202;-57
2023/08/21 10:08:40;;;;;;;3.20;2.30;;;38.90;28.70;;;46.15;15.57;102240.88;5034247;28;20206;-58
2023/08/21 10:11:09;;;;;;;10.00;3.40;;;38.90;28.70;;;45.78;15.57;102238.03;5033668;28;20226;-58
2023/08/21 10:13:39;;;;;;;3.83;2.85;;;38.90;28.70;;;45.67;16.40;102237.88;5038306;28;20268;-58
2023/08/21 10:16:08;;;;;;;2.95;2.03;;;38.80;29.30;;;45.27;16.39;102245.22;5040057;28;20263;-58